createdAt,value
2022-08-11T00:01:21.330Z,102342.97
2022-08-11T00:04:02.590Z,102344.44
2022-08-11T00:06:35.288Z,102323.53
2022-08-11T00:09:05.230Z,102334.66
2022-08-11T00:11:34.840Z,102333.09
2022-08-11T00:14:02.718Z,102326.41
2022-08-11T00:16:30.270Z,102332.34
2022-08-11T00:18:58.958Z,102338.50
2022-08-11T00:22:02.131Z,102331.31
2022-08-11T00:24:14.606Z,102323.78
2022-08-11T00:26:48.136Z,102337.88
2022-08-11T00:29:15.816Z,102332.06
2022-08-11T00:31:50.662Z,102329.78
2022-08-11T00:34:21.913Z,102327.97
2022-08-11T00:36:52.980Z,102345.19
2022-08-11T00:39:28.652Z,102341.50
2022-08-11T00:42:24.135Z,102338.56
2022-08-11T00:45:00.619Z,102338.16
2022-08-11T00:47:36.428Z,102347.66
2022-08-11T00:50:24.726Z,102349.94
2022-08-11T00:53:12.836Z,102350.06
2022-08-11T00:56:17.309Z,102349.25
2022-08-11T00:58:50.866Z,102350.50
2022-08-11T01:01:17.679Z,102343.81
2022-08-11T01:04:06.058Z,102348.22
2022-08-11T01:06:50.419Z,102340.84
2022-08-11T01:09:49.723Z,102345.81
2022-08-11T01:12:45.180Z,102343.13
2022-08-11T01:15:24.326Z,102349.53
2022-08-11T01:18:12.472Z,102354.19
2022-08-11T01:21:05.489Z,102348.81
2022-08-11T01:24:26.960Z,102335.63
2022-08-11T01:27:30.809Z,102340.84
2022-08-11T01:30:06.164Z,102341.44
2022-08-11T01:33:10.283Z,102339.03
2022-08-11T01:36:14.030Z,102341.84
2022-08-11T01:38:55.251Z,102340.59
2022-08-11T01:42:00.220Z,102332.06
2022-08-11T01:44:45.449Z,102336.19
2022-08-11T01:47:53.428Z,102339.69
2022-08-11T01:50:38.609Z,102342.13
2022-08-11T01:53:28.520Z,102337.19
2022-08-11T01:56:23.926Z,102332.19
2022-08-11T01:59:11.936Z,102338.84
2022-08-11T02:02:07.811Z,102330.47
2022-08-11T02:05:06.961Z,102339.97
2022-08-11T02:07:49.858Z,102331.25
2022-08-11T02:11:12.981Z,102338.44
2022-08-11T02:14:03.431Z,102335.47
2022-08-11T02:17:19.294Z,102332.66
2022-08-11T02:20:22.184Z,102319.88
2022-08-11T02:24:03.815Z,102331.78
2022-08-11T02:26:52.018Z,102326.78
2022-08-11T02:30:05.075Z,102328.47
2022-08-11T02:33:04.871Z,102327.00
2022-08-11T02:35:47.197Z,102318.44
2022-08-11T02:38:19.208Z,102331.22
2022-08-11T02:41:42.307Z,102344.00
2022-08-11T02:44:33.836Z,102337.59
2022-08-11T02:47:14.645Z,102318.16
2022-08-11T02:50:06.205Z,102337.06
2022-08-11T02:53:02.225Z,102331.28
2022-08-11T02:55:58.435Z,102333.78
2022-08-11T02:58:43.665Z,102330.22
2022-08-11T03:01:23.585Z,102333.59
2022-08-11T03:03:57.750Z,102338.13
2022-08-11T03:06:55.138Z,102330.72
2022-08-11T03:09:43.064Z,102329.75
2022-08-11T03:12:41.553Z,102322.16
2022-08-11T03:15:37.554Z,102326.34
2022-08-11T03:18:48.882Z,102327.75
2022-08-11T03:21:21.933Z,102328.22
2022-08-11T03:24:19.251Z,102329.22
2022-08-11T03:27:11.082Z,102337.94
2022-08-11T03:30:10.329Z,102335.97
2022-08-11T03:33:18.738Z,102326.72
2022-08-11T03:36:16.256Z,102327.19
2022-08-11T03:39:04.578Z,102330.13
2022-08-11T03:42:03.865Z,102332.81
2022-08-11T03:45:13.307Z,102337.72
2022-08-11T03:48:01.873Z,102341.78
2022-08-11T03:50:51.862Z,102336.66
2022-08-11T03:53:45.542Z,102334.72
2022-08-11T03:56:26.497Z,102335.03
2022-08-11T03:59:28.884Z,102339.56
2022-08-11T04:02:09.222Z,102335.56
2022-08-11T04:05:29.022Z,102337.97
2022-08-11T04:08:17.141Z,102337.03
2022-08-11T04:11:02.397Z,102329.66
2022-08-11T04:14:20.743Z,102329.47
2022-08-11T04:17:13.790Z,102321.59
2022-08-11T04:20:34.905Z,102321.50
2022-08-11T04:24:36.333Z,102313.69
2022-08-11T04:27:02.665Z,102308.69
2022-08-11T04:30:05.087Z,102315.38
2022-08-11T04:33:09.122Z,102317.13
2022-08-11T04:35:54.302Z,102314.06
2022-08-11T04:38:49.197Z,102312.09
2022-08-11T04:42:12.296Z,102317.28
2022-08-11T04:44:53.213Z,102316.84
2022-08-11T04:48:16.394Z,102317.00
2022-08-11T04:51:32.509Z,102320.06
2022-08-11T04:55:08.723Z,102313.69
2022-08-11T04:58:05.797Z,102311.16
2022-08-11T05:01:10.899Z,102322.84
2022-08-11T05:04:27.864Z,102317.22
2022-08-11T05:07:14.138Z,102314.75
2022-08-11T05:10:00.415Z,102317.91
2022-08-11T05:12:30.180Z,102315.13
2022-08-11T05:15:17.708Z,102313.28
2022-08-11T05:18:13.383Z,102300.75
2022-08-11T05:21:07.375Z,102301.59
2022-08-11T05:23:58.716Z,102296.34
2022-08-11T05:26:49.164Z,102321.91
2022-08-11T05:30:09.508Z,102311.97
2022-08-11T05:33:01.721Z,102308.75
2022-08-11T05:36:01.857Z,102313.09
2022-08-11T05:38:46.989Z,102321.22
2022-08-11T05:41:33.337Z,102325.34
2022-08-11T05:44:22.303Z,102331.19
2022-08-11T05:47:09.304Z,102332.94
2022-08-11T05:49:57.815Z,102321.72
2022-08-11T05:52:47.114Z,102329.28
2022-08-11T05:56:01.695Z,102324.41
2022-08-11T05:58:57.522Z,102340.16
2022-08-11T06:01:27.519Z,102328.41
2022-08-11T06:04:15.743Z,102323.47
2022-08-11T06:07:17.745Z,102331.03
2022-08-11T06:09:48.575Z,102325.81
2022-08-11T06:12:32.211Z,102324.41
2022-08-11T06:15:04.234Z,102325.00
2022-08-11T06:17:38.867Z,102308.19
2022-08-11T06:20:13.513Z,102319.16
2022-08-11T06:22:43.116Z,102315.75
2022-08-11T06:25:11.807Z,102316.03
2022-08-11T06:27:40.916Z,102327.66
2022-08-11T06:30:13.484Z,102326.66
2022-08-11T06:32:46.631Z,102325.09
2022-08-11T06:35:27.229Z,102327.94
2022-08-11T06:37:58.757Z,102329.44
2022-08-11T06:40:31.021Z,102317.19
2022-08-11T06:43:16.217Z,102297.56
2022-08-11T06:45:57.538Z,102321.06
2022-08-11T06:48:25.238Z,102325.25
2022-08-11T06:51:13.990Z,102322.28
2022-08-11T06:54:03.064Z,102323.88
2022-08-11T06:57:01.698Z,102313.69
2022-08-11T07:02:53.490Z,102322.66
2022-08-11T07:05:30.091Z,102331.44
2022-08-11T07:08:35.766Z,102332.03
2022-08-11T07:11:38.002Z,102333.72
2022-08-11T07:14:24.642Z,102335.53
2022-08-11T07:16:55.251Z,102322.09
2022-08-11T07:19:44.515Z,102333.03
2022-08-11T07:22:31.909Z,102332.03
2022-08-11T07:25:21.678Z,102327.97
2022-08-11T07:28:16.947Z,102326.22
2022-08-11T07:30:44.080Z,102313.78
2022-08-11T07:34:05.303Z,102328.59
2022-08-11T07:36:04.234Z,102327.63
2022-08-11T07:38:47.335Z,102324.28
2022-08-11T07:41:16.279Z,102323.75
2022-08-11T07:43:49.539Z,102307.75
2022-08-11T07:46:36.262Z,102326.59
2022-08-11T07:49:23.338Z,102324.41
2022-08-11T07:52:09.230Z,102320.03
2022-08-11T07:54:36.936Z,102303.38
2022-08-11T07:57:24.331Z,102322.41
2022-08-11T08:00:29.827Z,102305.09
2022-08-11T08:03:18.738Z,102303.38
2022-08-11T08:06:07.496Z,102315.66
2022-08-11T08:09:14.153Z,102316.84
2022-08-11T08:12:00.030Z,102304.53
2022-08-11T08:14:45.506Z,102301.44
2022-08-11T08:17:31.515Z,102292.38
2022-08-11T08:19:58.990Z,102298.47
2022-08-11T08:22:38.665Z,102303.22
2022-08-11T08:25:07.738Z,102302.13
2022-08-11T08:27:35.884Z,102312.44
2022-08-11T08:30:23.167Z,102312.63
2022-08-11T08:32:51.649Z,102305.25
2022-08-11T08:35:19.489Z,102311.09
2022-08-11T08:37:47.689Z,102304.13
2022-08-11T08:40:15.003Z,102290.97
2022-08-11T08:42:55.615Z,102305.84
2022-08-11T08:45:23.546Z,102301.25
2022-08-11T08:48:00.386Z,102296.75
2022-08-11T08:50:52.200Z,102300.59
2022-08-11T08:53:23.027Z,102295.47
2022-08-11T08:55:51.285Z,102293.03
2022-08-11T08:58:22.059Z,102302.03
2022-08-11T09:00:52.140Z,102303.81
2022-08-11T09:06:07.601Z,102284.88
2022-08-11T09:08:35.329Z,102242.81
2022-08-11T09:11:24.389Z,102270.56
2022-08-11T09:14:04.927Z,102236.34
2022-08-11T09:16:34.367Z,102291.16
2022-08-11T09:19:04.761Z,102267.88
2022-08-11T09:21:39.355Z,102290.22
2022-08-11T09:24:32.666Z,102215.63
2022-08-11T09:27:04.168Z,102274.97
2022-08-11T09:29:32.163Z,102256.56
2022-08-11T09:31:59.783Z,102286.13
2022-08-11T09:34:27.443Z,102270.09
2022-08-11T09:37:13.958Z,102266.84
2022-08-11T09:40:19.201Z,102257.78
2022-08-11T09:43:05.006Z,102259.97
2022-08-11T09:45:34.653Z,102261.34
2022-08-11T09:48:07.970Z,102256.72
2022-08-11T09:50:35.245Z,102262.63
2022-08-11T09:53:34.978Z,102256.81
2022-08-11T09:55:53.855Z,102249.97
2022-08-11T09:58:42.040Z,102259.00
2022-08-11T10:01:26.961Z,102249.16
2022-08-11T10:04:03.050Z,102250.00
2022-08-11T10:06:54.278Z,102248.53
2022-08-11T10:09:25.042Z,102257.00
2022-08-11T10:11:57.880Z,102249.59
2022-08-11T10:14:45.394Z,102238.06
2022-08-11T10:17:13.560Z,102238.69
2022-08-11T10:19:42.475Z,102249.22
2022-08-11T10:22:28.509Z,102238.47
2022-08-11T10:25:20.189Z,102245.00
2022-08-11T10:28:28.322Z,102246.06
2022-08-11T10:30:59.167Z,102218.66
2022-08-11T10:33:50.230Z,102226.66
2022-08-11T10:36:25.597Z,102233.59
2022-08-11T10:38:52.884Z,102232.53
2022-08-11T10:42:01.791Z,102212.75
2022-08-11T10:44:26.059Z,102227.06
2022-08-11T10:47:11.478Z,102226.84
2022-08-11T10:49:38.536Z,102224.94
2022-08-11T10:52:23.599Z,102221.97
2022-08-11T10:55:09.301Z,102225.09
2022-08-11T10:58:04.205Z,102226.56
2022-08-11T11:00:32.398Z,102218.34
2022-08-11T11:03:22.005Z,102215.59
2022-08-11T11:06:28.811Z,102205.22
2022-08-11T11:08:57.636Z,102204.81
2022-08-11T11:11:49.017Z,102207.94
2022-08-11T11:14:46.666Z,102210.31
2022-08-11T11:17:49.796Z,102207.94
2022-08-11T11:20:36.173Z,102206.78
2022-08-11T11:23:25.935Z,102208.19
2022-08-11T11:26:06.848Z,102205.25
2022-08-11T11:29:20.558Z,102209.06
2022-08-11T11:32:05.103Z,102204.41
2022-08-11T11:35:01.570Z,102193.53
2022-08-11T11:37:32.226Z,102187.81
2022-08-11T11:40:00.858Z,102186.81
2022-08-11T11:42:28.960Z,102186.34
2022-08-11T11:44:57.861Z,102196.94
2022-08-11T11:47:27.167Z,102188.88
2022-08-11T11:49:54.830Z,102161.81
2022-08-11T11:52:22.073Z,102176.72
2022-08-11T11:54:52.090Z,102187.81
2022-08-11T11:57:39.008Z,102190.72
2022-08-11T12:00:33.689Z,102184.13
2022-08-11T12:03:04.045Z,102166.69
2022-08-11T12:05:34.608Z,102170.09
2022-08-11T12:08:17.798Z,102174.44
2022-08-11T12:10:49.915Z,102169.16
2022-08-11T12:13:36.666Z,102170.09
2022-08-11T12:16:33.061Z,102153.66
2022-08-11T12:18:54.585Z,102156.63
2022-08-11T12:21:22.604Z,102152.47
2022-08-11T12:24:09.069Z,102152.00
2022-08-11T12:27:14.663Z,102163.56
2022-08-11T12:29:36.658Z,102148.63
2022-08-11T12:32:08.839Z,102135.34
2022-08-11T12:34:36.549Z,102142.91
2022-08-11T12:37:05.847Z,102147.50
2022-08-11T12:40:16.435Z,102131.47
2022-08-11T12:43:03.988Z,102125.66
2022-08-11T12:45:39.785Z,102125.81
2022-08-11T12:48:59.165Z,102116.88
2022-08-11T12:52:11.768Z,102114.34
2022-08-11T12:54:35.483Z,102108.94
2022-08-11T12:57:45.049Z,102109.78
2022-08-11T13:00:31.258Z,102093.91
2022-08-11T13:03:16.807Z,102076.38
2022-08-11T13:05:45.427Z,102107.72
2022-08-11T13:08:16.717Z,102092.06
2022-08-11T13:11:03.206Z,102103.63
2022-08-11T13:13:52.946Z,102092.91
2022-08-11T13:16:23.335Z,102090.16
2022-08-11T13:18:51.405Z,102095.84
2022-08-11T13:21:21.429Z,102085.06
2022-08-11T13:23:59.430Z,102090.97
2022-08-11T13:26:47.751Z,102083.94
2022-08-11T13:29:22.304Z,102087.81
2022-08-11T13:31:50.683Z,102066.22
2022-08-11T13:34:19.035Z,102072.59
2022-08-11T13:36:57.889Z,102067.16
2022-08-11T13:39:27.062Z,102071.84
2022-08-11T13:41:56.509Z,102069.09
2022-08-11T13:44:27.360Z,102064.66
2022-08-11T13:46:57.770Z,102059.06
2022-08-11T13:49:25.862Z,102063.63
2022-08-11T13:51:55.182Z,102066.59
2022-08-11T13:54:25.363Z,102063.38
2022-08-11T13:57:02.271Z,102065.31
2022-08-11T13:59:31.231Z,102058.31
2022-08-11T14:02:28.290Z,102052.22
2022-08-11T14:04:59.351Z,102052.78
2022-08-11T14:07:35.277Z,102055.88
2022-08-11T14:10:04.094Z,102057.69
2022-08-11T14:12:52.292Z,102055.66
2022-08-11T14:15:25.221Z,102041.59
2022-08-11T14:18:01.768Z,102036.78
2022-08-11T14:20:50.924Z,102035.75
2022-08-11T14:23:21.434Z,102034.53
2022-08-11T14:26:07.287Z,102020.66
2022-08-11T14:28:44.415Z,102020.06
2022-08-11T14:31:14.369Z,102013.41
2022-08-11T14:34:00.883Z,102022.19
2022-08-11T14:36:35.196Z,102014.94
2022-08-11T14:39:13.509Z,102021.44
2022-08-11T14:42:12.086Z,102017.09
2022-08-11T14:45:07.227Z,102018.28
2022-08-11T14:47:36.398Z,102021.69
2022-08-11T14:50:11.168Z,102012.00
2022-08-11T14:52:47.480Z,102015.78
2022-08-11T14:55:33.596Z,102010.41
2022-08-11T14:58:02.828Z,102009.56
2022-08-11T15:00:30.978Z,101998.06
2022-08-11T15:03:11.743Z,102001.38
2022-08-11T15:05:56.981Z,102005.59
2022-08-11T15:08:53.559Z,102013.19
2022-08-11T15:11:42.059Z,101999.06
2022-08-11T15:14:11.064Z,101991.78
2022-08-11T15:17:00.464Z,101985.72
2022-08-11T15:19:30.197Z,101997.22
2022-08-11T15:22:28.082Z,101989.03
2022-08-11T15:24:55.674Z,101988.28
2022-08-11T15:27:42.665Z,101987.88
2022-08-11T15:30:33.460Z,101986.50
2022-08-11T15:33:23.087Z,101981.41
2022-08-11T15:36:09.862Z,101975.03
2022-08-11T15:38:42.353Z,101969.56
2022-08-11T15:41:31.943Z,101977.31
2022-08-11T15:44:17.737Z,101963.13
2022-08-11T15:46:55.417Z,101958.19
2022-08-11T15:50:11.343Z,101969.38
2022-08-11T15:52:21.472Z,101968.16
2022-08-11T15:54:49.711Z,101969.53
2022-08-11T15:57:39.927Z,101969.31
2022-08-11T16:00:26.248Z,101953.50
2022-08-11T16:02:55.270Z,101961.56
2022-08-11T16:05:46.045Z,101957.59
2022-08-11T16:08:15.505Z,101953.69
2022-08-11T16:10:44.887Z,101957.25
2022-08-11T16:13:14.425Z,101957.13
2022-08-11T16:16:01.335Z,101960.38
2022-08-11T16:18:40.671Z,101957.59
2022-08-11T16:21:34.398Z,101952.06
2022-08-11T16:24:06.334Z,101958.69
2022-08-11T16:27:10.192Z,101937.81
2022-08-11T16:29:25.071Z,101946.31
2022-08-11T16:32:25.921Z,101928.75
2022-08-11T16:35:26.063Z,101938.25
2022-08-11T16:38:13.020Z,101936.25
2022-08-11T16:40:40.388Z,101944.28
2022-08-11T16:43:28.662Z,101944.88
2022-08-11T16:46:14.506Z,101937.44
2022-08-11T16:48:43.327Z,101949.31
2022-08-11T16:51:12.066Z,101934.53
2022-08-11T16:53:59.928Z,101935.06
2022-08-11T16:56:37.640Z,101938.22
2022-08-11T16:59:16.310Z,101920.66
2022-08-11T17:01:58.844Z,101935.59
2022-08-11T17:05:09.189Z,101932.91
2022-08-11T17:07:57.379Z,101915.28
2022-08-11T17:10:54.815Z,101929.44
2022-08-11T17:13:31.843Z,101925.41
2022-08-11T17:16:09.084Z,101925.34
2022-08-11T17:18:49.376Z,101935.44
2022-08-11T17:21:23.890Z,101909.69
2022-08-11T17:24:08.713Z,101921.31
2022-08-11T17:26:56.859Z,101920.56
2022-08-11T17:29:30.666Z,101918.53
2022-08-11T17:32:19.366Z,101913.69
2022-08-11T17:35:05.809Z,101914.22
2022-08-11T17:37:35.347Z,101910.75
2022-08-11T17:40:07.093Z,101912.34
2022-08-11T17:42:53.856Z,101926.66
2022-08-11T17:45:41.708Z,101909.28
2022-08-11T17:48:28.203Z,101914.06
2022-08-11T17:50:59.320Z,101916.50
2022-08-11T17:54:15.971Z,101907.38
2022-08-11T17:56:53.908Z,101924.47
2022-08-11T17:59:39.184Z,101925.41
2022-08-11T18:02:34.885Z,101927.72
2022-08-11T18:05:09.571Z,101930.34
2022-08-11T18:08:00.825Z,101929.59
2022-08-11T18:10:49.637Z,101927.97
2022-08-11T18:13:37.164Z,101930.94
2022-08-11T18:16:22.506Z,101937.84
2022-08-11T18:19:07.845Z,101933.22
2022-08-11T18:22:14.247Z,101934.97
2022-08-11T18:25:09.353Z,101937.25
2022-08-11T18:27:59.572Z,101941.03
2022-08-11T18:30:46.011Z,101930.47
2022-08-11T18:34:03.938Z,101939.63
2022-08-11T18:36:48.846Z,101945.19
2022-08-11T18:39:37.925Z,101950.53
2022-08-11T18:42:32.738Z,101945.69
2022-08-11T18:45:22.176Z,101948.28
2022-08-11T18:48:11.623Z,101956.47
2022-08-11T18:51:31.466Z,101961.59
2022-08-11T18:54:13.942Z,101947.50
2022-08-11T18:57:02.895Z,101949.16
2022-08-11T18:59:54.602Z,101954.88
2022-08-11T19:02:48.955Z,101967.25
2022-08-11T19:06:37.072Z,101958.47
2022-08-11T19:08:47.659Z,101970.91
2022-08-11T19:11:34.220Z,101968.41
2022-08-11T19:14:31.111Z,101959.81
2022-08-11T19:17:43.360Z,101977.91
2022-08-11T19:20:29.681Z,101974.13
2022-08-11T19:23:16.825Z,101987.81
2022-08-11T19:26:04.143Z,101993.72
2022-08-11T19:28:50.845Z,101988.03
2022-08-11T19:31:44.502Z,101984.03
2022-08-11T19:34:34.800Z,101977.50
2022-08-11T19:37:24.294Z,101991.38
2022-08-11T19:40:19.549Z,102000.19
2022-08-11T19:43:14.837Z,101991.31
2022-08-11T19:46:16.271Z,102000.94
2022-08-11T19:49:04.822Z,101984.34
2022-08-11T19:51:54.169Z,101990.63
2022-08-11T19:54:44.665Z,101992.72
2022-08-11T19:57:37.114Z,101985.69
2022-08-11T20:00:29.914Z,101991.28
2022-08-11T20:03:17.238Z,101993.50
2022-08-11T20:06:04.412Z,102001.03
2022-08-11T20:08:53.008Z,101996.81
2022-08-11T20:11:42.557Z,101997.41
2022-08-11T20:14:29.077Z,101996.66
2022-08-11T20:17:15.875Z,101997.63
2022-08-11T20:20:02.005Z,102001.16
2022-08-11T20:22:49.402Z,102011.84
2022-08-11T20:25:37.030Z,102008.78
2022-08-11T20:28:27.279Z,101993.56
2022-08-11T20:31:13.698Z,102004.97
2022-08-11T20:34:01.481Z,101992.41
2022-08-11T20:36:50.024Z,102001.66
2022-08-11T20:39:40.796Z,102013.22
2022-08-11T20:42:30.402Z,102006.19
2022-08-11T20:45:18.822Z,102008.16
2022-08-11T20:48:14.671Z,102013.81
2022-08-11T20:54:08.051Z,102019.13
2022-08-11T20:56:56.356Z,102020.53
2022-08-11T20:59:56.303Z,102021.56
2022-08-11T21:02:45.024Z,102027.78
2022-08-11T21:06:09.097Z,102022.97
2022-08-11T21:08:42.843Z,102026.19
2022-08-11T21:11:33.225Z,102032.19
2022-08-11T21:14:21.688Z,102035.75
2022-08-11T21:17:27.673Z,102029.03
2022-08-11T21:20:20.651Z,102033.06
2022-08-11T21:23:23.289Z,102024.53
2022-08-11T21:26:15.461Z,102018.88
2022-08-11T21:29:01.352Z,102028.88
2022-08-11T21:31:50.181Z,102027.63
2022-08-11T21:34:38.722Z,102029.44
2022-08-11T21:37:26.924Z,102022.00
2022-08-11T21:40:17.030Z,102023.88
2022-08-11T21:43:05.426Z,102027.34
2022-08-11T21:45:54.440Z,102030.47
2022-08-11T21:48:42.386Z,102028.47
2022-08-11T21:51:29.056Z,102014.75
2022-08-11T21:54:19.456Z,102030.28
2022-08-11T21:57:05.859Z,102027.50
2022-08-11T22:00:09.983Z,102029.53
2022-08-11T22:02:57.312Z,102028.47
2022-08-11T22:05:44.427Z,102029.47
2022-08-11T22:08:30.663Z,102019.19
2022-08-11T22:11:17.244Z,102021.44
2022-08-11T22:14:18.285Z,102014.09
2022-08-11T22:17:03.559Z,102019.69
2022-08-11T22:19:49.830Z,102014.97
2022-08-11T22:22:35.124Z,102016.50
2022-08-11T22:25:39.266Z,102018.97
2022-08-11T22:28:36.484Z,102012.91
2022-08-11T22:31:23.506Z,102013.31
2022-08-11T22:34:08.706Z,102006.00
2022-08-11T22:36:54.886Z,101992.34
2022-08-11T22:39:41.154Z,102010.78
2022-08-11T22:42:33.313Z,102008.06
2022-08-11T22:45:28.486Z,102003.50
2022-08-11T22:48:15.334Z,101998.44
2022-08-11T22:51:02.437Z,102001.13
2022-08-11T22:53:57.632Z,102007.22
2022-08-11T22:56:44.261Z,102021.09
2022-08-11T22:59:30.217Z,102004.38
2022-08-11T23:02:15.265Z,102012.81
2022-08-11T23:05:00.806Z,102003.16
2022-08-11T23:07:50.904Z,102001.81
2022-08-11T23:10:39.419Z,102000.28
2022-08-11T23:13:28.389Z,101998.75
2022-08-11T23:16:14.720Z,101994.88
2022-08-11T23:19:01.701Z,102014.53
2022-08-11T23:21:47.956Z,102007.91
2022-08-11T23:24:40.652Z,102012.47
2022-08-11T23:27:28.321Z,102009.44
2022-08-11T23:30:20.156Z,102017.72
2022-08-11T23:33:09.800Z,102026.03
2022-08-11T23:36:02.303Z,102018.22
2022-08-11T23:38:52.989Z,102027.56
2022-08-11T23:41:39.210Z,102024.16
2022-08-11T23:44:25.953Z,101994.69
2022-08-11T23:47:15.673Z,102024.84
2022-08-11T23:50:01.506Z,102023.13
2022-08-11T23:52:49.193Z,102022.78
2022-08-11T23:55:38.606Z,102010.63
2022-08-11T23:58:27.469Z,102028.06
